createdAt,value
2022-12-05T00:00:19.077Z,1
2022-12-05T00:05:19.039Z,0
2022-12-05T00:11:15.223Z,0
2022-12-05T00:15:19.014Z,0
2022-12-05T00:20:19.085Z,0
2022-12-05T00:25:19.110Z,0
2022-12-05T00:30:19.099Z,1
2022-12-05T00:35:19.089Z,1
2022-12-05T00:40:19.141Z,1
2022-12-05T00:45:19.089Z,1
2022-12-05T00:50:19.119Z,1
2022-12-05T00:55:19.108Z,1
2022-12-05T01:00:16.149Z,1
2022-12-05T01:05:19.158Z,1
2022-12-05T01:10:19.139Z,0
2022-12-05T01:15:19.083Z,0
2022-12-05T01:20:19.131Z,1
2022-12-05T01:25:19.161Z,1
2022-12-05T01:30:19.123Z,0
2022-12-05T01:35:19.167Z,0
2022-12-05T01:40:19.154Z,1
2022-12-05T01:45:19.102Z,1
2022-12-05T01:50:19.112Z,1
2022-12-05T01:55:16.179Z,1
2022-12-05T02:00:19.177Z,1
2022-12-05T02:05:16.251Z,1
2022-12-05T02:10:19.207Z,1
2022-12-05T02:15:19.169Z,1
2022-12-05T02:20:16.147Z,1
2022-12-05T02:25:19.125Z,0
2022-12-05T02:30:19.135Z,1
2022-12-05T02:35:19.129Z,1
2022-12-05T02:40:19.167Z,1
2022-12-05T02:45:19.119Z,0
2022-12-05T02:50:19.162Z,1
2022-12-05T02:55:19.165Z,1
2022-12-05T03:00:16.128Z,0
2022-12-05T03:05:19.235Z,1
2022-12-05T03:10:19.204Z,1
2022-12-05T03:15:19.199Z,0
2022-12-05T03:20:16.183Z,1
2022-12-05T03:25:16.195Z,1
2022-12-05T03:30:16.261Z,0
2022-12-05T03:35:16.253Z,1
2022-12-05T03:40:19.184Z,1
2022-12-05T03:45:19.216Z,1
2022-12-05T03:50:16.328Z,0
2022-12-05T03:55:19.261Z,0
2022-12-05T04:00:19.266Z,1
2022-12-05T04:05:16.256Z,1
2022-12-05T04:10:16.195Z,0
2022-12-05T04:15:16.252Z,0
2022-12-05T04:20:19.252Z,0
2022-12-05T04:25:19.192Z,1
2022-12-05T04:30:19.196Z,0
2022-12-05T04:35:19.284Z,0
2022-12-05T04:40:19.247Z,1
2022-12-05T04:45:19.199Z,1
2022-12-05T04:50:19.233Z,1
2022-12-05T04:55:19.258Z,1
2022-12-05T05:00:18.487Z,1
2022-12-05T05:05:15.491Z,1
2022-12-05T05:10:18.482Z,1
2022-12-05T05:15:15.538Z,0
2022-12-05T05:20:19.628Z,0
2022-12-05T05:25:18.558Z,1
2022-12-05T05:30:15.510Z,2
2022-12-05T05:35:15.531Z,2
2022-12-05T05:40:15.525Z,1
2022-12-05T05:45:15.545Z,1
2022-12-05T05:50:21.656Z,1
2022-12-05T05:55:15.487Z,1
2022-12-05T06:00:18.647Z,1
2022-12-05T06:05:18.517Z,1
2022-12-05T06:10:18.509Z,1
2022-12-05T06:15:18.572Z,1
2022-12-05T06:20:18.546Z,1
2022-12-05T06:25:18.476Z,1
2022-12-05T06:30:15.334Z,1
2022-12-05T06:35:18.513Z,1
2022-12-05T06:40:15.626Z,1
2022-12-05T06:45:15.569Z,1
2022-12-05T06:50:15.539Z,1
2022-12-05T06:55:18.577Z,0
2022-12-05T07:00:18.549Z,0
2022-12-05T07:05:18.470Z,1
2022-12-05T07:10:15.596Z,1
2022-12-05T07:15:26.218Z,1
2022-12-05T07:20:18.534Z,1
2022-12-05T07:25:15.526Z,1
2022-12-05T07:30:15.556Z,1
2022-12-05T07:35:18.532Z,1
2022-12-05T07:40:18.580Z,1
2022-12-05T07:45:18.556Z,1
2022-12-05T07:50:18.563Z,0
2022-12-05T07:55:15.572Z,0
2022-12-05T08:00:18.546Z,0
2022-12-05T08:05:15.561Z,0
2022-12-05T08:10:15.611Z,1
2022-12-05T08:15:18.557Z,1
2022-12-05T08:20:18.542Z,1
2022-12-05T08:25:18.560Z,0
2022-12-05T08:30:18.561Z,0
2022-12-05T08:35:15.589Z,0
2022-12-05T08:40:18.600Z,0
2022-12-05T08:45:18.569Z,0
2022-12-05T08:50:18.558Z,0
2022-12-05T08:55:15.624Z,1
2022-12-05T09:00:15.666Z,1
2022-12-05T09:05:27.771Z,1
2022-12-05T09:10:15.544Z,1
2022-12-05T09:15:18.597Z,1
2022-12-05T09:20:18.646Z,2
2022-12-05T09:25:18.586Z,3
2022-12-05T09:30:18.629Z,2
2022-12-05T09:35:18.615Z,1
2022-12-05T09:40:15.719Z,2
2022-12-05T09:45:15.668Z,2
2022-12-05T09:50:18.637Z,2
2022-12-05T09:55:18.550Z,1
2022-12-05T10:00:15.645Z,1
2022-12-05T10:05:15.472Z,1
2022-12-05T10:10:19.958Z,2
2022-12-05T10:15:15.614Z,2
2022-12-05T10:20:15.666Z,1
2022-12-05T10:25:15.607Z,0
2022-12-05T10:30:18.629Z,1
2022-12-05T10:35:18.596Z,1
2022-12-05T10:40:18.629Z,0
2022-12-05T10:45:18.632Z,0
2022-12-05T10:50:18.596Z,0
2022-12-05T10:55:18.599Z,0
2022-12-05T11:00:18.620Z,1
2022-12-05T11:05:18.748Z,1
2022-12-05T11:10:23.580Z,1
2022-12-05T11:15:15.668Z,2
2022-12-05T11:20:18.660Z,1
2022-12-05T11:25:18.665Z,1
2022-12-05T11:30:18.655Z,1
2022-12-05T11:35:18.652Z,1
2022-12-05T11:40:21.545Z,1
2022-12-05T11:45:15.687Z,1
2022-12-05T11:50:15.574Z,1
2022-12-05T11:55:19.092Z,1
2022-12-05T12:00:18.620Z,0
2022-12-05T12:05:18.636Z,0
2022-12-05T12:10:18.664Z,1
2022-12-05T12:15:18.664Z,1
2022-12-05T12:20:18.661Z,0
2022-12-05T12:25:18.665Z,1
2022-12-05T12:30:18.628Z,0
2022-12-05T12:35:18.699Z,0
2022-12-05T12:40:18.655Z,1
2022-12-05T12:45:15.702Z,0
2022-12-05T12:50:15.691Z,1
2022-12-05T12:55:15.918Z,1
2022-12-05T13:00:15.716Z,1
2022-12-05T13:05:18.717Z,1
2022-12-05T13:10:15.568Z,4
2022-12-05T13:15:18.662Z,3
2022-12-05T13:20:18.779Z,2
2022-12-05T13:25:18.742Z,3
2022-12-05T13:30:18.630Z,3
2022-12-05T13:35:15.702Z,3
2022-12-05T13:40:15.715Z,3
2022-12-05T13:45:18.756Z,4
2022-12-05T13:50:15.631Z,6
2022-12-05T13:55:18.775Z,5
2022-12-05T14:00:18.676Z,6
2022-12-05T14:05:18.740Z,6
2022-12-05T14:10:18.720Z,5
2022-12-05T14:15:18.721Z,4
2022-12-05T14:20:15.735Z,4
2022-12-05T14:25:18.763Z,5
2022-12-05T14:30:18.734Z,3
2022-12-05T14:35:15.745Z,3
2022-12-05T14:40:18.811Z,3
2022-12-05T14:45:18.700Z,3
2022-12-05T14:50:15.742Z,5
2022-12-05T14:55:25.120Z,4
2022-12-05T15:00:18.783Z,2
2022-12-05T15:05:18.711Z,2
2022-12-05T15:10:18.739Z,5
2022-12-05T15:15:18.709Z,4
2022-12-05T15:20:18.778Z,5
2022-12-05T15:25:18.718Z,7
2022-12-05T15:30:15.757Z,6
2022-12-05T15:35:18.784Z,5
2022-12-05T15:40:18.706Z,9
2022-12-05T15:45:18.762Z,6
2022-12-05T15:50:15.768Z,6
2022-12-05T15:55:18.770Z,9
2022-12-05T16:00:18.828Z,9
2022-12-05T16:05:18.688Z,6
2022-12-05T16:10:15.783Z,3
2022-12-05T16:15:15.779Z,5
2022-12-05T16:20:15.809Z,6
2022-12-05T16:25:18.776Z,8
2022-12-05T16:30:15.847Z,6
2022-12-05T16:35:15.761Z,5
2022-12-05T16:40:18.804Z,8
2022-12-05T16:45:15.773Z,10
2022-12-05T16:50:15.793Z,7
2022-12-05T16:55:15.773Z,6
2022-12-05T17:00:18.804Z,6
2022-12-05T17:05:15.621Z,5
2022-12-05T18:02:46.519Z,5
2022-12-05T18:02:47.133Z,6
2022-12-05T18:02:47.707Z,7
2022-12-05T18:02:48.232Z,5
2022-12-05T18:02:48.767Z,5
2022-12-05T18:02:49.335Z,5
2022-12-05T18:03:00.665Z,8
2022-12-05T18:03:06.706Z,8
2022-12-05T18:03:18.257Z,5
2022-12-05T18:03:29.827Z,4
2022-12-05T18:03:41.463Z,4
2022-12-05T18:05:16.306Z,7
2022-12-05T18:10:16.579Z,5
2022-12-05T18:15:19.548Z,7
2022-12-05T18:20:19.597Z,7
2022-12-05T18:25:19.593Z,5
2022-12-05T18:30:19.572Z,5
2022-12-05T18:35:19.560Z,5
2022-12-05T18:40:16.601Z,4
2022-12-05T18:45:19.558Z,3
2022-12-05T18:50:19.546Z,4
2022-12-05T18:55:26.961Z,5
2022-12-05T19:00:16.588Z,4
2022-12-05T19:05:16.599Z,5
2022-12-05T19:10:16.570Z,6
2022-12-05T19:15:19.608Z,7
2022-12-05T19:20:16.727Z,6
2022-12-05T19:25:19.630Z,5
2022-12-05T19:30:19.587Z,7
2022-12-05T19:35:19.551Z,5
2022-12-05T19:40:19.637Z,5
2022-12-05T19:45:18.215Z,3
2022-12-05T19:50:19.569Z,4
2022-12-05T19:55:19.577Z,5
2022-12-05T20:00:19.662Z,5
2022-12-05T20:05:16.643Z,3
2022-12-05T20:10:19.575Z,4
2022-12-05T20:15:16.641Z,6
2022-12-05T20:20:16.629Z,6
2022-12-05T20:25:19.625Z,7
2022-12-05T20:30:16.629Z,7
2022-12-05T20:35:22.494Z,7
2022-12-05T20:40:19.657Z,5
2022-12-05T20:45:19.602Z,5
2022-12-05T20:50:19.612Z,3
2022-12-05T20:55:16.652Z,6
2022-12-05T21:00:19.602Z,5
2022-12-05T21:05:16.674Z,4
2022-12-05T21:10:16.687Z,5
2022-12-05T21:15:16.673Z,4
2022-12-05T21:20:19.716Z,5
2022-12-05T21:25:19.644Z,5
2022-12-05T21:30:19.677Z,4
2022-12-05T21:35:16.911Z,5
2022-12-05T21:40:19.717Z,3
2022-12-05T21:45:16.677Z,3
2022-12-05T21:50:19.671Z,3
2022-12-05T21:55:19.697Z,5
2022-12-05T22:00:19.594Z,6
2022-12-05T22:05:19.625Z,4
2022-12-05T22:10:19.671Z,4
2022-12-05T22:15:16.681Z,3
2022-12-05T22:20:19.664Z,2
2022-12-05T22:25:19.677Z,3
2022-12-05T22:30:19.638Z,4
2022-12-05T22:35:16.781Z,5
2022-12-05T22:40:19.667Z,3
2022-12-05T22:45:19.705Z,3
2022-12-05T22:50:16.699Z,4
2022-12-05T22:55:16.731Z,4
2022-12-05T23:00:16.779Z,4
2022-12-05T23:05:16.715Z,4
2022-12-05T23:10:19.728Z,4
2022-12-05T23:15:19.726Z,4
2022-12-05T23:20:19.698Z,3
2022-12-05T23:25:19.694Z,4
2022-12-05T23:30:19.682Z,5
2022-12-05T23:35:19.978Z,5
2022-12-05T23:40:19.657Z,6
2022-12-05T23:45:19.746Z,6
2022-12-05T23:50:16.731Z,4
2022-12-05T23:55:19.722Z,3
